createdAt,value
2023-04-01T00:00:56.517Z,21.09
2023-04-01T00:01:57.970Z,21.05
2023-04-01T00:02:59.562Z,21.05
2023-04-01T00:04:01.138Z,20.96
2023-04-01T00:05:01.766Z,20.97
2023-04-01T00:06:02.370Z,20.99
2023-04-01T00:07:02.967Z,21.00
2023-04-01T00:08:03.572Z,20.99
2023-04-01T00:09:05.013Z,20.96
2023-04-01T00:10:06.300Z,21.02
2023-04-01T00:11:07.795Z,21.02
2023-04-01T00:12:08.397Z,21.02
2023-04-01T00:13:08.999Z,21.00
2023-04-01T00:14:10.451Z,20.96
2023-04-01T00:15:11.057Z,20.96
2023-04-01T00:16:21.146Z,20.95
2023-04-01T00:17:14.093Z,20.99
2023-04-01T00:18:14.772Z,20.96
2023-04-01T00:19:16.258Z,20.95
2023-04-01T00:20:17.663Z,20.90
2023-04-01T00:21:18.265Z,20.88
2023-04-01T00:22:19.713Z,20.82
2023-04-01T00:23:21.174Z,20.88
2023-04-01T00:24:21.755Z,20.92
2023-04-01T00:25:22.349Z,20.87
2023-04-01T00:26:23.796Z,20.85
2023-04-01T00:27:25.244Z,20.87
2023-04-01T00:28:26.686Z,20.87
2023-04-01T00:29:27.293Z,20.87
2023-04-01T00:30:27.905Z,20.92
2023-04-01T00:31:29.307Z,20.87
2023-04-01T00:32:30.838Z,20.85
2023-04-01T00:33:31.468Z,20.88
2023-04-01T00:34:32.917Z,20.84
2023-04-01T00:35:34.530Z,20.93
2023-04-01T00:36:35.262Z,20.93
2023-04-01T00:37:36.650Z,20.93
2023-04-01T00:38:38.092Z,20.85
2023-04-01T00:39:38.740Z,20.85
2023-04-01T00:40:40.253Z,20.88
2023-04-01T00:41:41.645Z,20.87
2023-04-01T00:42:42.292Z,20.88
2023-04-01T00:43:43.771Z,20.87
2023-04-01T00:44:45.282Z,20.78
2023-04-01T00:45:45.921Z,20.84
2023-04-01T00:46:47.393Z,20.81
2023-04-01T00:47:48.043Z,20.82
2023-04-01T00:48:49.476Z,20.77
2023-04-01T00:49:50.076Z,20.84
2023-04-01T00:50:51.528Z,20.72
2023-04-01T00:51:52.199Z,20.77
2023-04-01T00:52:52.786Z,20.78
2023-04-01T00:53:54.259Z,20.85
2023-04-01T00:54:54.842Z,20.75
2023-04-01T00:55:55.510Z,20.78
2023-04-01T00:56:56.978Z,20.78
2023-04-01T00:57:58.367Z,20.78
2023-04-01T00:58:58.964Z,20.75
2023-04-01T01:00:00.404Z,20.81
2023-04-01T01:01:01.037Z,20.78
2023-04-01T01:02:02.472Z,20.77
2023-04-01T01:03:03.912Z,20.77
2023-04-01T01:04:04.549Z,20.81
2023-04-01T01:05:05.942Z,20.72
2023-04-01T01:06:06.538Z,20.77
2023-04-01T01:07:07.139Z,20.84
2023-04-01T01:08:08.655Z,20.74
2023-04-01T01:09:09.254Z,20.84
2023-04-01T01:10:10.651Z,20.78
2023-04-01T01:11:11.241Z,20.78
2023-04-01T01:12:12.637Z,20.78
2023-04-01T01:13:13.239Z,20.77
2023-04-01T01:14:14.632Z,20.78
2023-04-01T01:15:15.228Z,20.78
2023-04-01T01:16:16.708Z,20.80
2023-04-01T01:17:18.228Z,20.78
2023-04-01T01:18:19.733Z,20.81
2023-04-01T01:19:21.126Z,20.72
2023-04-01T01:20:26.641Z,20.77
2023-04-01T01:21:23.331Z,20.77
2023-04-01T01:22:24.764Z,20.72
2023-04-01T01:23:25.383Z,20.80
2023-04-01T01:24:25.964Z,20.74
2023-04-01T01:25:26.564Z,20.74
2023-04-01T01:26:27.165Z,20.75
2023-04-01T01:27:27.756Z,20.77
2023-04-01T01:28:28.351Z,20.75
2023-04-01T01:29:28.954Z,20.78
2023-04-01T01:30:29.572Z,20.78
2023-04-01T01:31:30.173Z,20.77
2023-04-01T01:32:31.617Z,20.70
2023-04-01T01:33:33.106Z,20.81
2023-04-01T01:34:33.703Z,20.77
2023-04-01T01:35:35.220Z,20.77
2023-04-01T01:36:36.680Z,20.75
2023-04-01T01:37:38.133Z,20.74
2023-04-01T01:38:39.543Z,20.74
2023-04-01T01:39:40.940Z,20.77
2023-04-01T01:40:42.415Z,20.74
2023-04-01T01:41:43.104Z,20.72
2023-04-01T01:42:44.552Z,20.69
2023-04-01T01:43:45.153Z,20.77
2023-04-01T01:44:45.946Z,20.77
2023-04-01T01:45:47.397Z,20.72
2023-04-01T01:46:47.984Z,20.72
2023-04-01T01:47:49.495Z,20.72
2023-04-01T01:48:50.908Z,20.72
2023-04-01T01:49:52.399Z,20.72
2023-04-01T01:50:53.847Z,20.69
2023-04-01T01:51:55.299Z,20.72
2023-04-01T01:52:56.696Z,20.70
2023-04-01T01:53:58.092Z,20.65
2023-04-01T01:54:58.696Z,20.59
2023-04-01T01:55:59.348Z,20.62
2023-04-01T01:56:59.980Z,20.63
2023-04-01T01:58:01.459Z,20.65
2023-04-01T01:59:03.027Z,20.70
2023-04-01T02:00:04.482Z,20.60
2023-04-01T02:01:05.964Z,20.72
2023-04-01T02:02:06.561Z,20.63
2023-04-01T02:03:07.270Z,20.60
2023-04-01T02:04:08.738Z,20.66
2023-04-01T02:05:09.326Z,20.60
2023-04-01T02:06:10.834Z,20.63
2023-04-01T02:07:12.233Z,20.65
2023-04-01T02:08:13.687Z,20.66
2023-04-01T02:09:14.344Z,20.66
2023-04-01T02:10:14.958Z,20.67
2023-04-01T02:11:15.556Z,20.66
2023-04-01T02:12:16.173Z,20.63
2023-04-01T02:13:17.651Z,20.63
2023-04-01T02:14:18.250Z,20.72
2023-04-01T02:15:19.693Z,20.65
2023-04-01T02:16:21.161Z,20.74
2023-04-01T02:17:21.767Z,20.62
2023-04-01T02:18:22.355Z,20.66
2023-04-01T02:19:23.865Z,20.63
2023-04-01T02:20:25.357Z,20.66
2023-04-01T02:21:25.946Z,20.63
2023-04-01T02:22:27.477Z,20.58
2023-04-01T02:23:28.944Z,20.63
2023-04-01T02:24:29.543Z,20.65
2023-04-01T02:25:30.193Z,20.63
2023-04-01T02:26:30.789Z,20.62
2023-04-01T02:27:32.185Z,20.66
2023-04-01T02:28:32.788Z,20.65
2023-04-01T02:29:34.235Z,20.65
2023-04-01T02:30:34.841Z,20.63
2023-04-01T02:31:35.548Z,20.70
2023-04-01T02:32:37.070Z,20.65
2023-04-01T02:33:37.679Z,20.63
2023-04-01T02:34:39.138Z,20.65
2023-04-01T02:35:40.623Z,20.62
2023-04-01T02:36:42.081Z,20.66
2023-04-01T02:37:43.534Z,20.69
2023-04-01T02:38:44.137Z,20.65
2023-04-01T02:39:44.746Z,20.62
2023-04-01T02:40:45.340Z,20.62
2023-04-01T02:41:46.790Z,20.62
2023-04-01T02:42:47.388Z,20.66
2023-04-01T02:43:47.975Z,20.62
2023-04-01T02:44:48.577Z,20.60
2023-04-01T02:45:49.331Z,20.66
2023-04-01T02:46:49.966Z,20.65
2023-04-01T02:47:51.485Z,20.63
2023-04-01T02:48:52.966Z,20.62
2023-04-01T02:49:54.363Z,20.58
2023-04-01T02:50:55.809Z,20.58
2023-04-01T02:51:57.304Z,20.60
2023-04-01T02:52:58.059Z,20.65
2023-04-01T02:53:59.510Z,20.60
2023-04-01T02:55:00.906Z,20.60
2023-04-01T02:56:02.377Z,20.62
2023-04-01T02:57:03.948Z,20.65
2023-04-01T02:58:05.371Z,20.60
2023-04-01T02:59:05.977Z,20.60
2023-04-01T03:00:07.439Z,20.60
2023-04-01T03:01:08.868Z,20.60
2023-04-01T03:02:10.309Z,20.60
2023-04-01T03:03:11.791Z,20.59
2023-04-01T03:04:13.311Z,20.60
2023-04-01T03:05:13.908Z,20.60
2023-04-01T03:06:15.359Z,20.63
2023-04-01T03:07:16.761Z,20.62
2023-04-01T03:08:17.369Z,20.62
2023-04-01T03:09:18.887Z,20.62
2023-04-01T03:10:19.556Z,20.62
2023-04-01T03:11:20.151Z,20.60
2023-04-01T03:12:21.564Z,20.59
2023-04-01T03:13:22.136Z,20.59
2023-04-01T03:14:22.740Z,20.66
2023-04-01T03:15:23.400Z,20.56
2023-04-01T03:16:24.833Z,20.52
2023-04-01T03:17:25.447Z,20.56
2023-04-01T03:18:26.945Z,20.62
2023-04-01T03:19:27.547Z,20.56
2023-04-01T03:20:28.152Z,20.62
2023-04-01T03:21:29.712Z,20.60
2023-04-01T03:22:31.214Z,20.59
2023-04-01T03:23:32.610Z,20.63
2023-04-01T03:24:33.206Z,20.62
2023-04-01T03:25:33.984Z,20.56
2023-04-01T03:26:35.568Z,20.55
2023-04-01T03:27:36.170Z,20.55
2023-04-01T03:28:36.863Z,20.62
2023-04-01T03:29:38.338Z,20.62
2023-04-01T03:30:39.028Z,20.56
2023-04-01T03:31:39.635Z,20.58
2023-04-01T03:32:41.220Z,20.52
2023-04-01T03:33:42.657Z,20.55
2023-04-01T03:34:43.251Z,20.56
2023-04-01T03:35:43.846Z,20.55
2023-04-01T03:36:45.455Z,20.58
2023-04-01T03:37:46.893Z,20.50
2023-04-01T03:38:47.523Z,20.59
2023-04-01T03:39:48.959Z,20.58
2023-04-01T03:40:50.367Z,20.59
2023-04-01T03:41:50.957Z,20.55
2023-04-01T03:42:52.410Z,20.60
2023-04-01T03:43:53.848Z,20.58
2023-04-01T03:44:55.255Z,20.48
2023-04-01T03:45:56.666Z,20.52
2023-04-01T03:46:57.320Z,20.52
2023-04-01T03:47:57.991Z,20.52
2023-04-01T03:48:59.393Z,20.48
2023-04-01T03:50:00.015Z,20.48
2023-04-01T03:51:00.605Z,20.43
2023-04-01T03:52:02.077Z,20.51
2023-04-01T03:53:03.481Z,20.55
2023-04-01T03:54:04.938Z,20.44
2023-04-01T03:55:05.650Z,20.48
2023-04-01T03:56:06.259Z,20.52
2023-04-01T03:57:06.891Z,20.50
2023-04-01T03:58:07.564Z,20.52
2023-04-01T03:59:09.014Z,20.59
2023-04-01T04:00:10.471Z,20.50
2023-04-01T04:01:11.925Z,20.50
2023-04-01T04:02:12.535Z,20.51
2023-04-01T04:03:14.001Z,20.44
2023-04-01T04:04:15.445Z,20.59
2023-04-01T04:05:16.137Z,20.59
2023-04-01T04:06:17.540Z,20.51
2023-04-01T04:07:18.989Z,20.50
2023-04-01T04:08:20.385Z,20.50
2023-04-01T04:09:20.982Z,20.44
2023-04-01T04:10:21.583Z,20.47
2023-04-01T04:11:22.193Z,20.50
2023-04-01T04:12:22.853Z,20.47
2023-04-01T04:13:24.263Z,20.48
2023-04-01T04:14:25.658Z,20.47
2023-04-01T04:15:27.052Z,20.55
2023-04-01T04:16:27.763Z,20.50
2023-04-01T04:17:29.281Z,20.47
2023-04-01T04:18:29.874Z,20.48
2023-04-01T04:19:30.462Z,20.44
2023-04-01T04:20:31.857Z,20.43
2023-04-01T04:21:33.316Z,20.43
2023-04-01T04:22:34.828Z,20.41
2023-04-01T04:23:35.434Z,20.47
2023-04-01T04:24:36.890Z,20.44
2023-04-01T04:25:38.289Z,20.43
2023-04-01T04:26:39.680Z,20.41
2023-04-01T04:27:40.276Z,20.44
2023-04-01T04:28:41.694Z,20.47
2023-04-01T04:29:42.340Z,20.50
2023-04-01T04:30:42.932Z,20.58
2023-04-01T04:31:43.563Z,20.41
2023-04-01T04:32:45.043Z,20.50
2023-04-01T04:33:45.693Z,20.44
2023-04-01T04:34:47.222Z,20.48
2023-04-01T04:35:48.637Z,20.47
2023-04-01T04:36:49.227Z,20.47
2023-04-01T04:37:49.826Z,20.41
2023-04-01T04:38:50.424Z,20.47
2023-04-01T04:39:51.821Z,20.52
2023-04-01T04:40:52.423Z,20.40
2023-04-01T04:41:53.869Z,20.44
2023-04-01T04:42:55.285Z,20.41
2023-04-01T04:43:55.944Z,20.48
2023-04-01T04:44:56.525Z,20.48
2023-04-01T04:45:57.128Z,20.47
2023-04-01T04:46:58.559Z,20.48
2023-04-01T04:47:59.329Z,20.43
2023-04-01T04:49:00.762Z,20.48
2023-04-01T04:50:02.143Z,20.50
2023-04-01T04:51:02.749Z,20.48
2023-04-01T04:52:04.194Z,20.47
2023-04-01T04:53:05.584Z,20.48
2023-04-01T04:54:06.994Z,20.40
2023-04-01T04:55:08.413Z,20.48
2023-04-01T04:56:09.008Z,20.47
2023-04-01T04:57:09.676Z,20.51
2023-04-01T04:58:10.269Z,20.43
2023-04-01T04:59:11.675Z,20.48
2023-04-01T05:00:13.071Z,20.50
2023-04-01T05:01:14.601Z,20.55
2023-04-01T05:02:15.303Z,20.48
2023-04-01T05:03:16.773Z,20.51
2023-04-01T05:04:18.212Z,20.44
2023-04-01T05:05:19.658Z,20.44
2023-04-01T05:06:22.954Z,20.44
2023-04-01T05:07:22.750Z,20.48
2023-04-01T05:08:24.145Z,20.44
2023-04-01T05:09:24.746Z,20.44
2023-04-01T05:10:25.345Z,20.44
2023-04-01T05:11:25.948Z,20.44
2023-04-01T05:12:26.540Z,20.47
2023-04-01T05:13:27.936Z,20.47
2023-04-01T05:14:28.547Z,20.43
2023-04-01T05:15:29.132Z,20.47
2023-04-01T05:16:29.761Z,20.48
2023-04-01T05:17:30.483Z,20.44
2023-04-01T05:18:31.944Z,20.48
2023-04-01T05:19:32.546Z,20.43
2023-04-01T05:20:33.141Z,20.44
2023-04-01T05:21:34.589Z,20.47
2023-04-01T05:22:35.193Z,20.43
2023-04-01T05:23:35.784Z,20.47
2023-04-01T05:24:37.239Z,20.44
2023-04-01T05:25:38.693Z,20.43
2023-04-01T05:26:40.144Z,20.48
2023-04-01T05:27:40.810Z,20.44
2023-04-01T05:28:41.436Z,20.37
2023-04-01T05:29:42.039Z,20.44
2023-04-01T05:30:42.716Z,20.43
2023-04-01T05:31:43.345Z,20.40
2023-04-01T05:32:44.876Z,20.39
2023-04-01T05:33:46.425Z,20.48
2023-04-01T05:34:47.815Z,20.48
2023-04-01T05:35:49.321Z,20.47
2023-04-01T05:36:50.774Z,20.39
2023-04-01T05:37:51.367Z,20.47
2023-04-01T05:38:51.966Z,20.40
2023-04-01T05:39:52.562Z,20.39
2023-04-01T05:40:54.007Z,20.43
2023-04-01T05:41:55.405Z,20.41
2023-04-01T05:42:56.854Z,20.44
2023-04-01T05:43:57.506Z,20.37
2023-04-01T05:44:58.902Z,20.47
2023-04-01T05:46:00.393Z,20.47
2023-04-01T05:47:01.800Z,20.40
2023-04-01T05:48:02.477Z,20.43
2023-04-01T05:49:03.938Z,20.47
2023-04-01T05:50:05.329Z,20.43
2023-04-01T05:51:06.798Z,20.39
2023-04-01T05:52:07.404Z,20.40
2023-04-01T05:53:08.003Z,20.36
2023-04-01T05:54:09.414Z,20.39
2023-04-01T05:55:10.797Z,20.39
2023-04-01T05:56:11.402Z,20.37
2023-04-01T05:57:12.018Z,20.47
2023-04-01T05:58:13.437Z,20.40
2023-04-01T05:59:14.043Z,20.41
2023-04-01T06:00:14.664Z,20.31
2023-04-01T06:01:16.436Z,20.39
2023-04-01T06:02:17.796Z,20.39
2023-04-01T06:03:18.512Z,20.37
2023-04-01T06:04:20.010Z,20.36
2023-04-01T06:05:21.425Z,20.41
2023-04-01T06:06:22.828Z,20.36
2023-04-01T06:07:24.230Z,20.41
2023-04-01T06:08:25.635Z,20.32
2023-04-01T06:09:27.035Z,20.39
2023-04-01T06:10:28.458Z,20.31
2023-04-01T06:11:29.050Z,20.36
2023-04-01T06:12:30.448Z,20.41
2023-04-01T06:13:31.903Z,20.41
2023-04-01T06:14:32.490Z,20.39
2023-04-01T06:15:33.349Z,20.44
2023-04-01T06:16:34.912Z,20.44
2023-04-01T06:17:36.480Z,20.41
2023-04-01T06:18:37.095Z,20.39
2023-04-01T06:19:37.694Z,20.31
2023-04-01T06:20:38.301Z,20.34
2023-04-01T06:21:39.692Z,20.34
2023-04-01T06:22:41.111Z,20.39
2023-04-01T06:23:42.522Z,20.36
2023-04-01T06:24:43.117Z,20.37
2023-04-01T06:25:43.718Z,20.39
2023-04-01T06:26:45.121Z,20.39
2023-04-01T06:27:46.521Z,20.40
2023-04-01T06:28:47.923Z,20.31
2023-04-01T06:29:48.619Z,20.41
2023-04-01T06:30:49.240Z,20.32
2023-04-01T06:31:49.868Z,20.41
2023-04-01T06:32:50.567Z,20.32
2023-04-01T06:33:52.058Z,20.40
2023-04-01T06:34:52.687Z,20.34
2023-04-01T06:35:54.231Z,20.36
2023-04-01T06:36:55.684Z,20.40
2023-04-01T06:37:56.256Z,20.32
2023-04-01T06:38:56.854Z,20.37
2023-04-01T06:39:58.258Z,20.32
2023-04-01T06:40:58.870Z,20.39
2023-04-01T06:42:00.411Z,20.31
2023-04-01T06:43:01.040Z,20.36
2023-04-01T06:44:02.434Z,20.37
2023-04-01T06:45:03.830Z,20.29
2023-04-01T06:46:05.342Z,20.29
2023-04-01T06:47:06.806Z,20.31
2023-04-01T06:48:08.292Z,20.36
2023-04-01T06:49:09.695Z,20.41
2023-04-01T06:50:11.094Z,20.32
2023-04-01T06:51:11.736Z,20.36
2023-04-01T06:52:13.137Z,20.31
2023-04-01T06:53:13.741Z,20.41
2023-04-01T06:54:15.197Z,20.26
2023-04-01T06:55:15.867Z,20.40
2023-04-01T06:56:17.302Z,20.37
2023-04-01T06:57:18.792Z,20.28
2023-04-01T06:58:19.406Z,20.32
2023-04-01T06:59:20.017Z,20.32
2023-04-01T07:00:20.620Z,20.29
2023-04-01T07:01:21.284Z,20.36
2023-04-01T07:02:22.740Z,20.37
2023-04-01T07:03:23.336Z,20.31
2023-04-01T07:04:23.965Z,20.32
2023-04-01T07:05:24.630Z,20.32
2023-04-01T07:06:25.215Z,20.36
2023-04-01T07:07:25.808Z,20.31
2023-04-01T07:08:26.417Z,20.32
2023-04-01T07:09:27.811Z,20.25
2023-04-01T07:10:29.258Z,20.28
2023-04-01T07:11:30.675Z,20.32
2023-04-01T07:12:31.329Z,20.28
2023-04-01T07:13:31.915Z,20.36
2023-04-01T07:14:33.383Z,20.26
2023-04-01T07:15:34.191Z,20.29
2023-04-01T07:16:35.007Z,20.26
2023-04-01T07:17:36.462Z,20.32
2023-04-01T07:18:38.138Z,20.29
2023-04-01T07:19:38.765Z,20.31
2023-04-01T07:20:40.170Z,20.28
2023-04-01T07:21:40.764Z,20.29
2023-04-01T07:22:41.423Z,20.26
2023-04-01T07:23:42.016Z,20.28
2023-04-01T07:24:42.636Z,20.29
2023-04-01T07:25:44.036Z,20.29
2023-04-01T07:26:45.655Z,20.28
2023-04-01T07:27:46.108Z,20.29
2023-04-01T07:28:47.671Z,20.31
2023-04-01T07:29:49.093Z,20.31
2023-04-01T07:30:50.517Z,20.29
2023-04-01T07:31:51.944Z,20.31
2023-04-01T07:32:52.592Z,20.22
2023-04-01T07:33:53.980Z,20.28
2023-04-01T07:34:55.390Z,20.31
2023-04-01T07:35:56.000Z,20.26
2023-04-01T07:36:57.419Z,20.28
2023-04-01T07:37:58.816Z,20.31
2023-04-01T07:38:59.465Z,20.25
2023-04-01T07:40:00.070Z,20.28
2023-04-01T07:41:01.518Z,20.26
2023-04-01T07:42:02.933Z,20.32
2023-04-01T07:43:04.362Z,20.32
2023-04-01T07:44:05.769Z,20.24
2023-04-01T07:45:06.371Z,20.28
2023-04-01T07:46:07.064Z,20.34
2023-04-01T07:47:07.748Z,20.28
2023-04-01T07:48:09.256Z,20.29
2023-04-01T07:49:10.656Z,20.26
2023-04-01T07:50:11.267Z,20.26
2023-04-01T07:51:12.779Z,20.31
2023-04-01T07:52:13.531Z,20.25
2023-04-01T07:53:14.125Z,20.25
2023-04-01T07:54:15.529Z,20.28
2023-04-01T07:55:16.201Z,20.28
2023-04-01T07:56:16.812Z,20.31
2023-04-01T07:57:17.502Z,20.25
2023-04-01T07:58:18.108Z,20.29
2023-04-01T07:59:19.553Z,20.31
2023-04-01T08:00:21.012Z,20.31
2023-04-01T08:01:22.462Z,20.31
2023-04-01T08:02:24.076Z,20.34
2023-04-01T08:03:25.702Z,20.29
2023-04-01T08:04:27.274Z,20.31
2023-04-01T08:05:27.905Z,20.25
2023-04-01T08:06:29.355Z,20.29
2023-04-01T08:07:30.757Z,20.31
2023-04-01T08:08:31.354Z,20.31
2023-04-01T08:09:31.949Z,20.32
2023-04-01T08:10:33.348Z,20.36
2023-04-01T08:11:33.950Z,20.32
2023-04-01T08:12:35.419Z,20.32
2023-04-01T08:13:36.067Z,20.29
2023-04-01T08:14:37.444Z,20.29
2023-04-01T08:15:38.047Z,20.34
2023-04-01T08:16:38.697Z,20.28
2023-04-01T08:17:40.163Z,20.41
2023-04-01T08:18:41.628Z,20.28
2023-04-01T08:19:42.233Z,20.41
2023-04-01T08:20:43.763Z,20.37
2023-04-01T08:21:44.360Z,20.32
2023-04-01T08:22:45.760Z,20.31
2023-04-01T08:23:46.369Z,20.40
2023-04-01T08:24:48.461Z,20.39
2023-04-01T08:25:49.228Z,20.37
2023-04-01T08:26:50.685Z,20.40
2023-04-01T08:27:52.074Z,20.39
2023-04-01T08:28:52.731Z,20.29
2023-04-01T08:29:53.399Z,20.40
2023-04-01T08:30:54.795Z,20.32
2023-04-01T08:31:56.364Z,20.32
2023-04-01T08:32:57.145Z,20.36
2023-04-01T08:33:57.783Z,20.34
2023-04-01T08:34:59.292Z,20.39
2023-04-01T08:35:59.923Z,20.32
2023-04-01T08:37:01.419Z,20.34
2023-04-01T08:38:02.823Z,20.36
2023-04-01T08:39:03.426Z,20.41
2023-04-01T08:40:04.867Z,20.36
2023-04-01T08:41:05.461Z,20.39
2023-04-01T08:42:06.063Z,20.39
2023-04-01T08:43:07.513Z,20.39
2023-04-01T08:44:08.175Z,20.32
2023-04-01T08:45:09.630Z,20.39
2023-04-01T08:46:11.079Z,20.34
2023-04-01T08:47:12.483Z,20.31
2023-04-01T08:48:13.158Z,20.40
2023-04-01T08:49:14.608Z,20.32
2023-04-01T08:50:15.259Z,20.34
2023-04-01T08:51:15.917Z,20.36
2023-04-01T08:52:16.497Z,20.40
2023-04-01T08:53:17.897Z,20.39
2023-04-01T08:54:18.498Z,20.40
2023-04-01T08:55:19.936Z,20.47
2023-04-01T08:57:36.817Z,20.41
2023-04-01T08:58:38.215Z,20.44
2023-04-01T08:59:38.868Z,20.36
2023-04-01T09:00:40.274Z,20.39
2023-04-01T09:01:40.875Z,20.40
2023-04-01T09:02:42.380Z,20.39
2023-04-01T09:03:43.052Z,20.36
2023-04-01T09:04:44.607Z,20.39
2023-04-01T09:05:46.007Z,20.36
2023-04-01T09:06:47.405Z,20.32
2023-04-01T09:07:47.997Z,20.40
2023-04-01T09:08:48.601Z,20.36
2023-04-01T09:09:50.005Z,20.37
2023-04-01T09:10:51.396Z,20.37
2023-04-01T09:11:53.078Z,20.32
2023-04-01T09:12:53.589Z,20.32
2023-04-01T09:13:54.191Z,20.36
2023-04-01T09:14:54.796Z,20.34
2023-04-01T09:15:55.438Z,20.32
2023-04-01T09:16:56.044Z,20.32
2023-04-01T09:17:56.675Z,20.39
2023-04-01T09:18:58.164Z,20.36
2023-04-01T09:19:58.748Z,20.40
2023-04-01T09:20:59.356Z,20.40
2023-04-01T09:21:59.956Z,20.40
2023-04-01T09:23:00.626Z,20.37
2023-04-01T09:24:02.093Z,20.37
2023-04-01T09:25:02.699Z,20.31
2023-04-01T09:26:03.287Z,20.39
2023-04-01T09:27:04.738Z,20.32
2023-04-01T09:28:05.331Z,20.40
2023-04-01T09:29:06.730Z,20.31
2023-04-01T09:30:08.173Z,20.32
2023-04-01T09:31:09.586Z,20.36
2023-04-01T09:32:10.189Z,20.32
2023-04-01T09:33:10.800Z,20.32
2023-04-01T09:34:11.393Z,20.32
2023-04-01T09:35:12.802Z,20.34
2023-04-01T09:36:13.512Z,20.37
2023-04-01T09:37:14.096Z,20.39
2023-04-01T09:38:14.702Z,20.29
2023-04-01T09:39:16.193Z,20.40
2023-04-01T09:40:16.792Z,20.39
2023-04-01T09:41:17.516Z,20.34
2023-04-01T09:42:18.112Z,20.36
2023-04-01T09:43:18.701Z,20.36
2023-04-01T09:44:19.305Z,20.40
2023-04-01T09:45:19.912Z,20.32
2023-04-01T09:46:20.626Z,20.32
2023-04-01T09:47:22.053Z,20.40
2023-04-01T09:48:22.699Z,20.39
2023-04-01T09:49:24.143Z,20.36
2023-04-01T09:50:24.740Z,20.34
2023-04-01T09:51:26.135Z,20.37
2023-04-01T09:52:27.590Z,20.40
2023-04-01T09:53:28.257Z,20.31
2023-04-01T09:54:29.658Z,20.39
2023-04-01T09:55:30.262Z,20.34
2023-04-01T09:56:33.045Z,20.39
2023-04-01T09:57:33.472Z,20.34
2023-04-01T09:58:34.198Z,20.34
2023-04-01T09:59:36.629Z,20.34
2023-04-01T10:00:37.225Z,20.40
2023-04-01T10:01:38.681Z,20.32
2023-04-01T10:02:40.194Z,20.40
2023-04-01T10:03:40.793Z,20.39
2023-04-01T10:04:42.245Z,20.29
2023-04-01T10:05:42.953Z,20.34
2023-04-01T10:06:44.377Z,20.41
2023-04-01T10:07:44.978Z,20.39
2023-04-01T10:08:46.448Z,20.40
2023-04-01T10:09:47.842Z,20.39
2023-04-01T10:10:48.492Z,20.39
2023-04-01T10:11:49.103Z,20.36
2023-04-01T10:12:50.507Z,20.39
2023-04-01T10:13:51.168Z,20.40
2023-04-01T10:14:51.819Z,20.40
2023-04-01T10:15:52.424Z,20.40
2023-04-01T10:16:54.291Z,20.37
2023-04-01T10:17:54.573Z,20.39
2023-04-01T10:18:55.985Z,20.36
2023-04-01T10:19:57.394Z,20.37
2023-04-01T10:20:58.011Z,20.39
2023-04-01T10:21:59.436Z,20.34
2023-04-01T10:23:00.113Z,20.34
2023-04-01T10:24:00.761Z,20.32
2023-04-01T10:25:01.936Z,20.34
2023-04-01T10:26:03.754Z,20.36
2023-04-01T10:27:05.228Z,20.39
2023-04-01T10:28:05.842Z,20.40
2023-04-01T10:29:06.432Z,20.36
2023-04-01T10:30:07.030Z,20.40
2023-04-01T10:31:07.695Z,20.39
2023-04-01T10:32:08.516Z,20.39
2023-04-01T10:33:09.968Z,20.36
2023-04-01T10:34:11.348Z,20.34
2023-04-01T10:35:12.017Z,20.31
2023-04-01T10:36:13.501Z,20.34
2023-04-01T10:37:14.972Z,20.39
2023-04-01T10:38:16.425Z,20.39
2023-04-01T10:39:17.841Z,20.36
2023-04-01T10:40:19.254Z,20.32
2023-04-01T10:41:19.879Z,20.37
2023-04-01T10:42:20.491Z,20.32
2023-04-01T10:43:21.065Z,20.32
2023-04-01T10:44:22.562Z,20.36
2023-04-01T10:45:23.158Z,20.36
2023-04-01T10:46:24.759Z,20.37
2023-04-01T10:47:25.408Z,20.32
2023-04-01T10:48:26.080Z,20.37
2023-04-01T10:49:26.690Z,20.31
2023-04-01T10:50:28.081Z,20.36
2023-04-01T10:51:29.488Z,20.39
2023-04-01T10:52:30.091Z,20.39
2023-04-01T10:53:31.494Z,20.36
2023-04-01T10:54:32.950Z,20.29
2023-04-01T10:55:34.607Z,20.40
2023-04-01T10:56:36.122Z,20.29
2023-04-01T10:57:36.781Z,20.39
2023-04-01T10:58:38.189Z,20.34
2023-04-01T10:59:38.805Z,20.39
2023-04-01T11:00:40.200Z,20.40
2023-04-01T11:01:41.776Z,20.32
2023-04-01T11:02:42.581Z,20.40
2023-04-01T11:03:44.092Z,20.37
2023-04-01T11:04:45.606Z,20.39
2023-04-01T11:05:47.044Z,20.32
2023-04-01T11:06:48.450Z,20.32
2023-04-01T11:07:59.353Z,20.36
2023-04-01T11:08:50.686Z,20.36
2023-04-01T11:09:52.132Z,20.40
2023-04-01T11:10:52.754Z,20.29
2023-04-01T11:11:54.154Z,20.37
2023-04-01T11:12:54.760Z,20.41
2023-04-01T11:13:56.146Z,20.31
2023-04-01T11:14:56.847Z,20.36
2023-04-01T11:15:58.347Z,20.36
2023-04-01T11:16:58.926Z,20.34
2023-04-01T11:18:00.431Z,20.32
2023-04-01T11:19:01.827Z,20.40
2023-04-01T11:20:03.286Z,20.32
2023-04-01T11:21:03.883Z,20.41
2023-04-01T11:22:05.281Z,20.32
2023-04-01T11:23:06.789Z,20.37
2023-04-01T11:24:08.244Z,20.39
2023-04-01T11:25:08.837Z,20.36
2023-04-01T11:26:10.287Z,20.32
2023-04-01T11:27:10.901Z,20.36
2023-04-01T11:28:11.514Z,20.36
2023-04-01T11:29:12.991Z,20.36
2023-04-01T11:30:14.439Z,20.34
2023-04-01T11:31:16.754Z,20.25
2023-04-01T11:32:18.137Z,20.43
2023-04-01T11:33:20.668Z,20.32
2023-04-01T11:34:20.364Z,20.32
2023-04-01T11:35:20.965Z,20.29
2023-04-01T11:36:22.503Z,20.39
2023-04-01T11:37:23.879Z,20.32
2023-04-01T11:38:25.281Z,20.32
2023-04-01T11:39:26.703Z,20.36
2023-04-01T11:40:28.091Z,20.28
2023-04-01T11:41:29.485Z,20.26
2023-04-01T11:42:30.086Z,20.31
2023-04-01T11:43:33.709Z,20.25
2023-04-01T11:44:33.135Z,20.36
2023-04-01T11:45:34.855Z,20.40
2023-04-01T11:46:36.556Z,20.28
2023-04-01T11:47:38.117Z,20.32
2023-04-01T11:48:39.513Z,20.39
2023-04-01T11:49:40.116Z,20.43
2023-04-01T11:50:41.520Z,20.36
2023-04-01T11:51:42.920Z,20.41
2023-04-01T11:52:43.516Z,20.39
2023-04-01T11:53:44.131Z,20.26
2023-04-01T11:54:45.536Z,20.29
2023-04-01T11:55:48.102Z,20.32
2023-04-01T11:56:48.607Z,20.37
2023-04-01T11:57:49.238Z,20.32
2023-04-01T11:58:50.642Z,20.37
2023-04-01T11:59:52.045Z,20.32
2023-04-01T12:00:53.454Z,20.32
2023-04-01T12:01:54.839Z,20.41
2023-04-01T12:02:56.311Z,20.39
2023-04-01T12:03:57.048Z,20.36
2023-04-01T12:04:58.025Z,20.32
2023-04-01T12:05:59.549Z,20.32
2023-04-01T12:07:01.067Z,20.40
2023-04-01T12:08:01.720Z,20.36
2023-04-01T12:09:03.116Z,20.40
2023-04-01T12:10:04.520Z,20.39
2023-04-01T12:11:05.973Z,20.32
2023-04-01T12:12:07.380Z,20.39
2023-04-01T12:13:08.763Z,20.29
2023-04-01T12:14:09.369Z,20.36
2023-04-01T12:15:09.980Z,20.39
2023-04-01T12:16:10.638Z,20.34
2023-04-01T12:17:11.270Z,20.36
2023-04-01T12:18:11.909Z,20.36
2023-04-01T12:19:13.360Z,20.31
2023-04-01T12:20:13.959Z,20.32
2023-04-01T12:21:15.361Z,20.32
2023-04-01T12:22:16.768Z,20.32
2023-04-01T12:23:17.426Z,20.36
2023-04-01T12:24:18.023Z,20.39
2023-04-01T12:25:18.629Z,20.32
2023-04-01T12:26:19.225Z,20.40
2023-04-01T12:27:19.893Z,20.32
2023-04-01T12:28:20.493Z,20.37
2023-04-01T12:29:22.017Z,20.31
2023-04-01T12:30:23.410Z,20.25
2023-04-01T12:31:24.966Z,20.36
2023-04-01T12:32:26.653Z,20.32
2023-04-01T12:33:28.089Z,20.37
2023-04-01T12:34:28.695Z,20.32
2023-04-01T12:35:29.323Z,20.36
2023-04-01T12:36:30.772Z,20.34
2023-04-01T12:37:31.357Z,20.32
2023-04-01T12:38:31.962Z,20.26
2023-04-01T12:39:33.410Z,20.26
2023-04-01T12:40:34.212Z,20.32
2023-04-01T12:41:35.846Z,20.37
2023-04-01T12:42:37.340Z,20.36
2023-04-01T12:43:38.000Z,20.34
2023-04-01T12:44:39.396Z,20.34
2023-04-01T12:45:40.834Z,20.41
2023-04-01T12:46:42.242Z,20.34
2023-04-01T12:47:42.914Z,20.40
2023-04-01T12:48:44.410Z,20.39
2023-04-01T12:49:45.005Z,20.34
2023-04-01T12:50:45.598Z,20.31
2023-04-01T12:51:46.991Z,20.31
2023-04-01T12:52:47.593Z,20.41
2023-04-01T12:53:49.045Z,20.34
2023-04-01T12:54:50.498Z,20.34
2023-04-01T12:55:51.167Z,20.32
2023-04-01T12:56:52.635Z,20.31
2023-04-01T12:57:54.016Z,20.29
2023-04-01T12:58:54.664Z,20.36
2023-04-01T12:59:56.062Z,20.31
2023-04-01T13:00:56.678Z,20.36
2023-04-01T13:01:58.061Z,20.32
2023-04-01T13:02:58.742Z,20.34
2023-04-01T13:04:00.247Z,20.39
2023-04-01T13:05:01.674Z,20.25
2023-04-01T13:06:02.287Z,20.39
2023-04-01T13:07:02.874Z,20.29
2023-04-01T13:08:04.262Z,20.31